Farley, Iowa
Current Conditions -  °F | °C
As of 2:53 AM on Wednesday 22 Oct 2014 (Local Time) from KDBQ Reporting Station
Clear Clear  
Wind Chill:   Ceiling: Unl
Heat Index:   Visibility: 10mi
Dew Point:   Wind: 7mph
Humidity: 93%   Direction: 130°SE
Pressure: 30.28"   Gusts: NA
Location:  42.44°N, 91.01°W
Report Text: KDBQ 220753Z AUTO 13006KT 10SM CLR 03/02 A3028 RMK AO2 SLP261 T00280017
Loading
Personal Weather Stations






























Interactive Weather Map
Tropical Storm Tracking
New forecast layout! Learn more

10-Day Weather Forecast

Advertisements
Track Severe Weather on mobile